createdAt,value
2018-11-13T00:00:25.619Z,14.32
2018-11-13T00:01:25.793Z,14.29
2018-11-13T00:02:25.469Z,14.28
2018-11-13T00:03:25.394Z,14.32
2018-11-13T00:04:25.321Z,14.31
2018-11-13T00:05:25.245Z,14.23
2018-11-13T00:06:25.271Z,14.28
2018-11-13T00:07:25.096Z,14.21
2018-11-13T00:08:25.021Z,14.17
2018-11-13T00:09:24.952Z,14.17
2018-11-13T00:10:24.872Z,14.27
2018-11-13T00:11:24.802Z,14.23
2018-11-13T00:12:24.731Z,14.20
2018-11-13T00:13:24.652Z,14.19
2018-11-13T00:14:24.574Z,14.21
2018-11-13T00:15:24.499Z,14.10
2018-11-13T00:16:24.424Z,14.11
2018-11-13T00:17:24.350Z,14.21
2018-11-13T00:18:24.276Z,14.16
2018-11-13T00:19:24.202Z,14.24
2018-11-13T00:20:24.126Z,14.19
2018-11-13T00:21:24.052Z,14.14
2018-11-13T00:22:23.978Z,14.10
2018-11-13T00:23:23.904Z,14.19
2018-11-13T00:24:23.829Z,14.09
2018-11-13T00:25:23.812Z,14.11
2018-11-13T00:26:23.679Z,14.09
2018-11-13T00:27:23.640Z,14.10
2018-11-13T00:28:23.531Z,14.13
2018-11-13T00:29:23.478Z,14.10
2018-11-13T00:30:23.878Z,14.07
2018-11-13T00:31:23.307Z,14.07
2018-11-13T00:32:23.482Z,14.13
2018-11-13T00:33:23.157Z,14.13
2018-11-13T00:34:23.087Z,14.07
2018-11-13T00:35:23.010Z,14.09
2018-11-13T00:36:22.934Z,14.05
2018-11-13T00:37:22.859Z,14.07
2018-11-13T00:38:22.785Z,14.07
2018-11-13T00:39:22.711Z,14.10
2018-11-13T00:40:22.636Z,14.13
2018-11-13T00:41:22.562Z,14.07
2018-11-13T00:42:22.488Z,14.07
2018-11-13T00:43:22.412Z,14.07
2018-11-13T00:44:22.341Z,14.07
2018-11-13T00:45:22.318Z,13.98
2018-11-13T00:46:22.189Z,13.94
2018-11-13T00:47:22.114Z,13.99
2018-11-13T00:48:22.053Z,13.96
2018-11-13T00:49:21.964Z,13.96
2018-11-13T00:50:21.890Z,14.01
2018-11-13T00:51:21.815Z,14.03
2018-11-13T00:52:21.740Z,14.07
2018-11-13T00:53:21.664Z,14.03
2018-11-13T00:54:21.592Z,14.03
2018-11-13T00:55:21.517Z,14.07
2018-11-13T00:56:21.441Z,14.09
2018-11-13T00:57:21.368Z,14.10
2018-11-13T00:58:21.292Z,14.14
2018-11-13T00:59:21.227Z,14.20
2018-11-13T01:00:21.169Z,14.17
2018-11-13T01:01:21.076Z,14.11
2018-11-13T01:02:20.994Z,14.13
2018-11-13T01:03:20.969Z,14.07
2018-11-13T01:04:20.847Z,14.09
2018-11-13T01:05:20.889Z,14.11
2018-11-13T01:06:20.697Z,14.10
2018-11-13T01:07:20.621Z,14.09
2018-11-13T01:08:20.545Z,14.13
2018-11-13T01:09:20.481Z,14.09
2018-11-13T01:10:20.399Z,14.07
2018-11-13T01:11:20.322Z,14.09
2018-11-13T01:12:20.247Z,14.09
2018-11-13T01:13:20.172Z,14.03
2018-11-13T01:14:20.099Z,14.09
2018-11-13T01:15:20.024Z,14.07
2018-11-13T01:16:19.948Z,14.09
2018-11-13T01:17:19.948Z,14.03
2018-11-13T01:18:19.799Z,14.13
2018-11-13T01:19:19.727Z,14.05
2018-11-13T01:20:19.650Z,14.10
2018-11-13T01:21:19.577Z,14.05
2018-11-13T01:22:19.551Z,14.09
2018-11-13T01:23:19.477Z,14.10
2018-11-13T01:24:19.479Z,14.02
2018-11-13T01:25:19.280Z,14.01
2018-11-13T01:26:19.203Z,14.09
2018-11-13T01:27:19.129Z,14.09
2018-11-13T01:28:19.052Z,14.07
2018-11-13T01:29:18.979Z,14.05
2018-11-13T01:30:18.904Z,14.03
2018-11-13T01:31:18.829Z,14.05
2018-11-13T01:32:18.754Z,13.98
2018-11-13T01:33:18.929Z,13.95
2018-11-13T01:34:18.604Z,13.96
2018-11-13T01:35:18.529Z,13.96
2018-11-13T01:36:18.454Z,13.99
2018-11-13T01:37:18.383Z,14.02
2018-11-13T01:38:18.357Z,13.99
2018-11-13T01:39:18.231Z,14.01
2018-11-13T01:40:18.155Z,13.89
2018-11-13T01:41:18.086Z,13.98
2018-11-13T01:42:18.007Z,13.96
2018-11-13T01:43:18.183Z,13.94
2018-11-13T01:44:17.863Z,13.89
2018-11-13T01:45:17.783Z,14.01
2018-11-13T01:46:17.706Z,13.91
2018-11-13T01:47:17.634Z,13.99
2018-11-13T01:48:17.559Z,13.94
2018-11-13T01:49:17.484Z,13.96
2018-11-13T01:50:17.413Z,13.89
2018-11-13T01:51:17.334Z,13.89
2018-11-13T01:52:17.259Z,13.84
2018-11-13T01:53:17.185Z,13.84
2018-11-13T01:54:17.169Z,13.84
2018-11-13T01:55:17.036Z,13.83
2018-11-13T01:56:16.961Z,13.84
2018-11-13T01:57:16.886Z,13.86
2018-11-13T01:58:16.811Z,13.78
2018-11-13T01:59:16.737Z,13.78
2018-11-13T02:00:16.660Z,13.78
2018-11-13T02:01:16.586Z,13.84
2018-11-13T02:02:16.511Z,13.77
2018-11-13T02:03:16.439Z,13.76
2018-11-13T02:04:16.361Z,13.74
2018-11-13T02:05:16.288Z,13.76
2018-11-13T02:06:16.211Z,13.76
2018-11-13T02:07:16.137Z,13.76
2018-11-13T02:08:16.061Z,13.73
2018-11-13T02:09:16.035Z,13.71
2018-11-13T02:10:15.911Z,13.71
2018-11-13T02:11:15.836Z,13.68
2018-11-13T02:12:15.761Z,13.66
2018-11-13T02:13:15.686Z,13.66
2018-11-13T02:14:15.662Z,13.65
2018-11-13T02:15:15.536Z,13.63
2018-11-13T02:16:15.461Z,13.62
2018-11-13T02:17:15.386Z,13.58
2018-11-13T02:18:15.312Z,13.59
2018-11-13T02:19:15.287Z,13.58
2018-11-13T02:20:15.163Z,13.56
2018-11-13T02:21:15.087Z,13.52
2018-11-13T02:22:15.013Z,13.48
2018-11-13T02:23:14.938Z,13.48
2018-11-13T02:24:14.862Z,13.40
2018-11-13T02:25:14.887Z,13.40
2018-11-13T02:26:20.978Z,13.27
2018-11-13T02:27:14.636Z,13.32
2018-11-13T02:28:14.560Z,13.21
2018-11-13T02:29:14.487Z,13.28
2018-11-13T02:30:14.412Z,13.29
2018-11-13T02:31:14.337Z,13.22
2018-11-13T02:32:14.262Z,13.25
2018-11-13T02:33:14.186Z,13.32
2018-11-13T02:34:14.110Z,13.27
2018-11-13T02:35:14.158Z,13.28
2018-11-13T02:36:13.961Z,13.27
2018-11-13T02:37:13.986Z,13.25
2018-11-13T02:38:13.810Z,13.36
2018-11-13T02:39:13.735Z,13.25
2018-11-13T02:40:13.660Z,13.27
2018-11-13T02:41:13.584Z,13.28
2018-11-13T02:42:13.509Z,13.29
2018-11-13T02:43:13.435Z,13.25
2018-11-13T02:44:13.359Z,13.19
2018-11-13T02:45:13.287Z,13.21
2018-11-13T02:46:13.210Z,13.17
2018-11-13T02:47:13.187Z,13.22
2018-11-13T02:48:13.158Z,13.21
2018-11-13T02:49:12.982Z,13.21
2018-11-13T02:50:12.909Z,13.17
2018-11-13T02:51:12.834Z,13.25
2018-11-13T02:52:12.756Z,13.17
2018-11-13T02:53:12.933Z,13.36
2018-11-13T02:54:12.607Z,13.21
2018-11-13T02:55:12.536Z,13.24
2018-11-13T02:56:12.456Z,13.17
2018-11-13T02:57:12.381Z,13.17
2018-11-13T02:58:12.310Z,13.17
2018-11-13T02:59:12.230Z,13.18
2018-11-13T03:00:12.155Z,13.07
2018-11-13T03:01:12.080Z,13.19
2018-11-13T03:02:12.004Z,13.09
2018-11-13T03:03:12.179Z,13.19
2018-11-13T03:04:11.854Z,13.17
2018-11-13T03:05:11.779Z,13.14
2018-11-13T03:06:11.704Z,13.17
2018-11-13T03:07:11.629Z,13.19
2018-11-13T03:08:11.551Z,13.24
2018-11-13T03:09:11.476Z,13.11
2018-11-13T03:10:11.405Z,13.21
2018-11-13T03:11:11.328Z,13.18
2018-11-13T03:12:11.251Z,13.21
2018-11-13T03:13:11.178Z,13.09
2018-11-13T03:14:11.151Z,13.17
2018-11-13T03:15:11.026Z,13.19
2018-11-13T03:16:10.949Z,13.19
2018-11-13T03:17:10.873Z,13.21
2018-11-13T03:18:10.801Z,13.27
2018-11-13T03:19:10.725Z,13.18
2018-11-13T03:20:10.651Z,13.22
2018-11-13T03:21:10.572Z,13.21
2018-11-13T03:22:10.499Z,13.25
2018-11-13T03:23:10.423Z,13.17
2018-11-13T03:24:10.346Z,13.17
2018-11-13T03:25:10.379Z,13.24
2018-11-13T03:26:10.196Z,13.22
2018-11-13T03:27:10.125Z,13.21
2018-11-13T03:28:10.045Z,13.18
2018-11-13T03:29:09.970Z,13.14
2018-11-13T03:30:09.950Z,13.14
2018-11-13T03:31:09.892Z,13.15
2018-11-13T03:32:09.744Z,13.14
2018-11-13T03:33:09.669Z,13.07
2018-11-13T03:34:09.593Z,13.11
2018-11-13T03:35:09.568Z,13.17
2018-11-13T03:36:09.451Z,13.14
2018-11-13T03:37:09.367Z,13.03
2018-11-13T03:38:09.291Z,13.21
2018-11-13T03:39:09.217Z,13.17
2018-11-13T03:40:09.239Z,13.22
2018-11-13T03:41:09.064Z,13.10
2018-11-13T03:42:08.989Z,13.07
2018-11-13T03:43:08.916Z,13.06
2018-11-13T03:44:08.838Z,13.03
2018-11-13T03:45:08.763Z,13.02
2018-11-13T03:46:08.689Z,13.07
2018-11-13T03:47:08.613Z,13.09
2018-11-13T03:48:08.536Z,13.06
2018-11-13T03:49:08.461Z,13.07
2018-11-13T03:50:08.387Z,13.03
2018-11-13T03:51:08.311Z,13.02
2018-11-13T03:52:08.236Z,13.04
2018-11-13T03:53:08.168Z,13.09
2018-11-13T03:54:08.085Z,12.99
2018-11-13T03:55:08.010Z,13.07
2018-11-13T03:56:07.935Z,12.97
2018-11-13T03:57:07.858Z,12.88
2018-11-13T03:58:07.783Z,12.88
2018-11-13T03:59:07.707Z,12.88
2018-11-13T04:00:07.730Z,12.91
2018-11-13T04:01:07.557Z,12.96
2018-11-13T04:02:07.482Z,12.84
2018-11-13T04:03:07.406Z,12.81
2018-11-13T04:04:07.330Z,12.91
2018-11-13T04:05:07.256Z,12.91
2018-11-13T04:06:07.179Z,12.82
2018-11-13T04:07:07.102Z,12.78
2018-11-13T04:08:07.026Z,12.78
2018-11-13T04:09:06.955Z,12.79
2018-11-13T04:10:06.879Z,12.77
2018-11-13T04:11:06.804Z,12.82
2018-11-13T04:12:06.726Z,12.78
2018-11-13T04:13:06.649Z,12.78
2018-11-13T04:14:06.574Z,12.82
2018-11-13T04:15:06.599Z,12.78
2018-11-13T04:16:06.423Z,12.82
2018-11-13T04:17:06.348Z,12.81
2018-11-13T04:18:06.273Z,12.82
2018-11-13T04:19:06.197Z,12.86
2018-11-13T04:20:06.171Z,12.88
2018-11-13T04:21:06.045Z,12.82
2018-11-13T04:22:05.969Z,12.84
2018-11-13T04:23:05.894Z,12.84
2018-11-13T04:24:05.819Z,12.82
2018-11-13T04:25:05.744Z,12.74
2018-11-13T04:26:05.769Z,12.79
2018-11-13T04:27:05.592Z,12.85
2018-11-13T04:28:05.516Z,12.82
2018-11-13T04:29:05.441Z,12.82
2018-11-13T04:30:05.365Z,12.79
2018-11-13T04:31:05.291Z,12.78
2018-11-13T04:32:05.214Z,12.84
2018-11-13T04:33:05.139Z,12.79
2018-11-13T04:34:05.065Z,12.84
2018-11-13T04:35:04.988Z,12.86
2018-11-13T04:36:04.961Z,12.84
2018-11-13T04:37:04.836Z,12.81
2018-11-13T04:38:04.760Z,12.81
2018-11-13T04:39:04.685Z,12.82
2018-11-13T04:40:04.609Z,12.71
2018-11-13T04:41:04.536Z,12.79
2018-11-13T04:42:04.459Z,12.85
2018-11-13T04:43:04.384Z,12.79
2018-11-13T04:44:04.315Z,12.84
2018-11-13T04:45:04.234Z,12.84
2018-11-13T04:46:04.156Z,12.86
2018-11-13T04:47:04.081Z,12.79
2018-11-13T04:48:04.012Z,12.82
2018-11-13T04:49:03.930Z,12.81
2018-11-13T04:50:03.854Z,12.85
2018-11-13T04:51:03.780Z,12.78
2018-11-13T04:52:03.704Z,12.74
2018-11-13T04:53:03.633Z,12.70
2018-11-13T04:54:03.552Z,12.74
2018-11-13T04:55:03.477Z,12.67
2018-11-13T04:56:03.401Z,12.64
2018-11-13T04:57:03.326Z,12.82
2018-11-13T04:58:03.250Z,12.67
2018-11-13T04:59:03.174Z,12.74
2018-11-13T05:00:03.103Z,12.81
2018-11-13T05:01:03.030Z,12.79
2018-11-13T05:02:02.947Z,12.77
2018-11-13T05:03:02.948Z,12.71
2018-11-13T05:04:02.795Z,12.77
2018-11-13T05:05:02.720Z,12.70
2018-11-13T05:06:02.644Z,12.69
2018-11-13T05:07:02.569Z,12.70
2018-11-13T05:08:02.493Z,12.79
2018-11-13T05:09:02.419Z,12.77
2018-11-13T05:10:02.391Z,12.70
2018-11-13T05:11:02.265Z,12.73
2018-11-13T05:12:02.191Z,12.73
2018-11-13T05:13:02.115Z,12.71
2018-11-13T05:14:02.040Z,12.71
2018-11-13T05:15:01.969Z,12.67
2018-11-13T05:16:01.889Z,12.71
2018-11-13T05:17:01.812Z,12.70
2018-11-13T05:18:01.740Z,12.73
2018-11-13T05:19:01.667Z,12.70
2018-11-13T05:20:01.585Z,12.73
2018-11-13T05:21:01.508Z,12.78
2018-11-13T05:22:01.434Z,12.74
2018-11-13T05:23:01.428Z,12.71
2018-11-13T05:24:01.281Z,12.77
2018-11-13T05:25:01.206Z,12.74
2018-11-13T05:26:01.135Z,12.70
2018-11-13T05:27:01.056Z,12.69
2018-11-13T05:28:00.979Z,12.78
2018-11-13T05:29:01.005Z,12.74
2018-11-13T05:30:00.827Z,12.73
2018-11-13T05:31:00.752Z,12.70
2018-11-13T05:32:00.678Z,12.74
2018-11-13T05:33:00.599Z,12.79
2018-11-13T05:34:00.523Z,12.74
2018-11-13T05:35:00.449Z,12.88
2018-11-13T05:36:00.371Z,12.78
2018-11-13T05:37:00.298Z,12.78
2018-11-13T05:38:00.232Z,12.73
2018-11-13T05:39:00.145Z,12.77
2018-11-13T05:40:00.069Z,12.74
2018-11-13T05:40:59.992Z,12.73
2018-11-13T05:41:59.918Z,12.70
2018-11-13T05:42:59.842Z,12.70
2018-11-13T05:43:59.765Z,12.81
2018-11-13T05:44:59.690Z,12.73
2018-11-13T05:45:59.620Z,12.71
2018-11-13T05:46:59.549Z,12.79
2018-11-13T05:47:59.464Z,12.79
2018-11-13T05:48:59.386Z,12.78
2018-11-13T05:49:59.310Z,12.81
2018-11-13T05:50:59.238Z,12.81
2018-11-13T05:51:59.158Z,12.84
2018-11-13T05:52:59.082Z,12.77
2018-11-13T05:53:59.007Z,12.70
2018-11-13T05:54:58.931Z,12.81
2018-11-13T05:55:58.854Z,12.71
2018-11-13T05:56:58.778Z,12.69
2018-11-13T05:57:58.703Z,12.79
2018-11-13T05:58:58.626Z,12.77
2018-11-13T05:59:58.634Z,12.66
2018-11-13T06:00:58.474Z,12.64
2018-11-13T06:01:58.398Z,12.77
2018-11-13T06:02:58.322Z,12.67
2018-11-13T06:03:58.246Z,12.69
2018-11-13T06:04:58.170Z,12.73
2018-11-13T06:05:58.094Z,12.69
2018-11-13T06:06:58.020Z,12.61
2018-11-13T06:07:57.942Z,12.63
2018-11-13T06:08:57.866Z,12.67
2018-11-13T06:09:57.791Z,12.63
2018-11-13T06:10:57.714Z,12.63
2018-11-13T06:11:57.636Z,12.59
2018-11-13T06:12:57.562Z,12.61
2018-11-13T06:13:57.544Z,12.70
2018-11-13T06:14:57.410Z,12.55
2018-11-13T06:15:57.333Z,12.64
2018-11-13T06:16:57.257Z,12.60
2018-11-13T06:17:57.184Z,12.64
2018-11-13T06:18:57.104Z,12.70
2018-11-13T06:19:57.032Z,12.61
2018-11-13T06:20:56.953Z,12.56
2018-11-13T06:21:56.877Z,12.56
2018-11-13T06:22:56.807Z,12.59
2018-11-13T06:23:56.724Z,12.48
2018-11-13T06:24:56.648Z,12.46
2018-11-13T06:25:56.573Z,12.53
2018-11-13T06:26:56.496Z,12.55
2018-11-13T06:27:56.420Z,12.51
2018-11-13T06:28:56.347Z,12.53
2018-11-13T06:29:56.272Z,12.49
2018-11-13T06:30:56.194Z,12.53
2018-11-13T06:31:56.117Z,12.53
2018-11-13T06:32:56.041Z,12.51
2018-11-13T06:33:55.964Z,12.56
2018-11-13T06:34:55.890Z,12.53
2018-11-13T06:35:55.812Z,12.63
2018-11-13T06:36:55.737Z,12.61
2018-11-13T06:37:55.660Z,12.56
2018-11-13T06:38:55.705Z,12.60
2018-11-13T06:39:55.557Z,12.60
2018-11-13T06:40:55.432Z,12.61
2018-11-13T06:41:55.360Z,12.56
2018-11-13T06:42:55.279Z,12.61
2018-11-13T06:43:55.203Z,12.55
2018-11-13T06:44:55.126Z,12.55
2018-11-13T06:45:55.051Z,12.61
2018-11-13T06:46:54.974Z,12.55
2018-11-13T06:47:54.901Z,12.61
2018-11-13T06:48:54.839Z,12.56
2018-11-13T06:49:54.746Z,12.66
2018-11-13T06:50:54.670Z,12.55
2018-11-13T06:51:54.599Z,12.59
2018-11-13T06:52:54.516Z,12.48
2018-11-13T06:53:54.440Z,12.49
2018-11-13T06:54:54.366Z,12.51
2018-11-13T06:55:54.288Z,12.49
2018-11-13T06:56:54.212Z,12.53
2018-11-13T06:57:54.135Z,12.60
2018-11-13T06:58:54.060Z,12.51
2018-11-13T06:59:53.984Z,12.59
2018-11-13T07:00:53.907Z,12.61
2018-11-13T07:01:53.830Z,12.61
2018-11-13T07:02:53.755Z,12.59
2018-11-13T07:03:53.676Z,12.56
2018-11-13T07:04:53.630Z,12.55
2018-11-13T07:05:53.525Z,12.55
2018-11-13T07:06:53.449Z,12.60
2018-11-13T07:07:53.375Z,12.60
2018-11-13T07:08:53.296Z,12.64
2018-11-13T07:09:53.220Z,12.48
2018-11-13T07:10:53.205Z,12.49
2018-11-13T07:11:53.065Z,12.45
2018-11-13T07:12:52.990Z,12.45
2018-11-13T07:13:52.914Z,12.48
2018-11-13T07:14:52.837Z,12.48
2018-11-13T07:15:52.760Z,12.60
2018-11-13T07:16:52.684Z,12.52
2018-11-13T07:17:52.607Z,12.49
2018-11-13T07:18:52.532Z,12.45
2018-11-13T07:19:52.453Z,12.44
2018-11-13T07:20:52.427Z,12.48
2018-11-13T07:21:52.301Z,12.42
2018-11-13T07:22:52.224Z,12.37
2018-11-13T07:23:52.147Z,12.45
2018-11-13T07:24:52.072Z,12.45
2018-11-13T07:25:52.000Z,12.34
2018-11-13T07:26:51.941Z,12.42
2018-11-13T07:27:52.029Z,12.41
2018-11-13T07:28:51.765Z,12.41
2018-11-13T07:29:51.690Z,12.37
2018-11-13T07:30:51.613Z,12.37
2018-11-13T07:31:51.537Z,12.34
2018-11-13T07:32:51.460Z,12.37
2018-11-13T07:33:51.383Z,12.48
2018-11-13T07:34:51.306Z,12.42
2018-11-13T07:35:51.232Z,12.39
2018-11-13T07:36:51.154Z,12.34
2018-11-13T07:37:51.076Z,12.41
2018-11-13T07:38:51.001Z,12.36
2018-11-13T07:39:50.923Z,12.34
2018-11-13T07:40:50.879Z,12.51
2018-11-13T07:41:50.771Z,12.45
2018-11-13T07:42:50.696Z,12.41
2018-11-13T07:43:50.618Z,12.45
2018-11-13T07:44:50.542Z,12.39
2018-11-13T07:45:50.465Z,12.41
2018-11-13T07:46:50.449Z,12.49
2018-11-13T07:47:50.473Z,12.41
2018-11-13T07:48:50.237Z,12.37
2018-11-13T07:49:50.160Z,12.46
2018-11-13T07:50:50.086Z,12.48
2018-11-13T07:51:50.009Z,12.44
2018-11-13T07:52:49.933Z,12.42
2018-11-13T07:53:49.870Z,12.46
2018-11-13T07:54:49.780Z,12.44
2018-11-13T07:55:49.703Z,12.48
2018-11-13T07:56:49.629Z,12.52
2018-11-13T07:57:49.552Z,12.60
2018-11-13T07:58:49.480Z,12.60
2018-11-13T07:59:49.399Z,12.61
2018-11-13T08:00:49.325Z,12.61
2018-11-13T08:01:49.249Z,12.59
2018-11-13T08:02:49.172Z,12.56
2018-11-13T08:03:49.145Z,12.66
2018-11-13T08:04:49.020Z,12.59
2018-11-13T08:05:48.948Z,12.67
2018-11-13T08:06:49.024Z,12.69
2018-11-13T08:07:48.794Z,12.63
2018-11-13T08:08:48.717Z,12.51
2018-11-13T08:09:48.642Z,12.53
2018-11-13T08:10:48.566Z,12.49
2018-11-13T08:11:48.490Z,12.51
2018-11-13T08:12:48.509Z,12.51
2018-11-13T08:13:48.439Z,12.66
2018-11-13T08:14:48.266Z,12.64
2018-11-13T08:15:48.188Z,12.66
2018-11-13T08:16:48.112Z,12.64
2018-11-13T08:17:48.035Z,12.71
2018-11-13T08:18:47.968Z,12.73
2018-11-13T08:19:47.886Z,12.73
2018-11-13T08:20:47.810Z,12.81
2018-11-13T08:21:47.734Z,12.81
2018-11-13T08:22:47.658Z,12.78
2018-11-13T08:23:47.584Z,12.77
2018-11-13T08:24:47.508Z,12.74
2018-11-13T08:25:47.432Z,12.67
2018-11-13T08:26:47.374Z,12.66
2018-11-13T08:27:47.359Z,12.67
2018-11-13T08:28:47.248Z,12.74
2018-11-13T08:29:47.131Z,12.74
2018-11-13T08:30:47.056Z,12.60
2018-11-13T08:31:46.984Z,12.66
2018-11-13T08:32:46.906Z,12.61
2018-11-13T08:33:46.829Z,12.61
2018-11-13T08:34:46.784Z,12.55
2018-11-13T08:35:46.781Z,12.45
2018-11-13T08:36:46.602Z,12.51
2018-11-13T08:37:46.526Z,12.52
2018-11-13T08:38:46.450Z,12.52
2018-11-13T08:39:46.374Z,12.59
2018-11-13T08:40:46.300Z,12.63
2018-11-13T08:41:46.223Z,12.51
2018-11-13T08:42:46.148Z,12.46
2018-11-13T08:43:46.152Z,12.55
2018-11-13T08:44:46.001Z,12.48
2018-11-13T08:45:45.921Z,12.45
2018-11-13T08:46:45.847Z,12.49
2018-11-13T08:47:45.768Z,12.44
2018-11-13T08:48:45.692Z,12.48
2018-11-13T08:49:45.616Z,12.45
2018-11-13T08:50:45.557Z,12.39
2018-11-13T08:51:45.465Z,12.42
2018-11-13T08:52:45.388Z,12.41
2018-11-13T08:53:45.316Z,12.41
2018-11-13T08:54:45.238Z,12.36
2018-11-13T08:55:45.161Z,12.42
2018-11-13T08:56:45.085Z,12.46
2018-11-13T08:57:45.010Z,12.44
2018-11-13T08:58:44.943Z,12.48
2018-11-13T08:59:44.984Z,12.46
2018-11-13T09:00:44.780Z,12.45
2018-11-13T09:01:44.705Z,12.41
2018-11-13T09:02:44.680Z,12.46
2018-11-13T09:03:44.556Z,12.39
2018-11-13T09:04:44.476Z,12.42
2018-11-13T09:05:44.402Z,12.45
2018-11-13T09:06:44.325Z,12.53
2018-11-13T09:07:44.248Z,12.45
2018-11-13T09:08:44.172Z,12.42
2018-11-13T09:09:44.096Z,12.45
2018-11-13T09:10:44.021Z,12.44
2018-11-13T09:11:44.031Z,12.42
2018-11-13T09:12:43.868Z,12.48
2018-11-13T09:13:43.792Z,12.42
2018-11-13T09:14:43.716Z,12.42
2018-11-13T09:15:43.638Z,12.41
2018-11-13T09:16:43.563Z,12.44
2018-11-13T09:17:43.488Z,12.42
2018-11-13T09:18:43.452Z,12.41
2018-11-13T09:19:43.455Z,12.31
2018-11-13T09:20:43.260Z,12.36
2018-11-13T09:21:43.238Z,12.37
2018-11-13T09:22:43.186Z,12.45
2018-11-13T09:23:43.030Z,12.41
2018-11-13T09:24:42.955Z,12.36
2018-11-13T09:25:42.885Z,12.37
2018-11-13T09:26:42.802Z,12.34
2018-11-13T09:27:42.763Z,12.34
2018-11-13T09:28:42.652Z,12.49
2018-11-13T09:29:42.654Z,12.39
2018-11-13T09:30:42.816Z,12.49
2018-11-13T09:31:42.433Z,12.45
2018-11-13T09:32:42.345Z,12.41
2018-11-13T09:33:42.344Z,12.44
2018-11-13T09:34:42.193Z,12.44
2018-11-13T09:35:42.115Z,12.44
2018-11-13T09:36:42.040Z,12.33
2018-11-13T09:37:42.159Z,12.41
2018-11-13T09:38:41.887Z,12.37
2018-11-13T09:39:41.810Z,12.31
2018-11-13T09:40:41.734Z,12.41
2018-11-13T09:41:41.658Z,12.34
2018-11-13T09:42:41.582Z,12.36
2018-11-13T09:43:41.507Z,12.44
2018-11-13T09:44:41.444Z,12.37
2018-11-13T09:45:41.385Z,12.36
2018-11-13T09:46:41.303Z,12.41
2018-11-13T09:47:41.436Z,12.44
2018-11-13T09:48:41.155Z,12.39
2018-11-13T09:49:41.049Z,12.48
2018-11-13T09:50:40.986Z,12.49
2018-11-13T09:51:40.948Z,12.46
2018-11-13T09:52:40.821Z,12.52
2018-11-13T09:53:40.768Z,12.51
2018-11-13T09:54:40.669Z,12.51
2018-11-13T09:55:40.595Z,12.59
2018-11-13T09:56:40.518Z,12.56
2018-11-13T09:57:40.441Z,12.49
2018-11-13T09:58:40.681Z,12.55
2018-11-13T09:59:40.289Z,12.59
2018-11-13T10:00:40.415Z,12.60
2018-11-13T10:01:40.411Z,12.64
2018-11-13T10:02:40.756Z,12.77
2018-11-13T10:03:40.828Z,12.67
2018-11-13T10:04:40.805Z,12.61
2018-11-13T10:05:40.038Z,12.69
2018-11-13T10:06:39.805Z,12.64
2018-11-13T10:07:39.683Z,12.73
2018-11-13T10:08:39.606Z,12.77
2018-11-13T10:09:39.533Z,12.61
2018-11-13T10:10:39.538Z,12.69
2018-11-13T10:11:39.379Z,12.71
2018-11-13T10:12:39.308Z,12.71
2018-11-13T10:13:39.229Z,12.77
2018-11-13T10:14:39.153Z,12.66
2018-11-13T10:15:39.110Z,12.66
2018-11-13T10:16:39.000Z,12.73
2018-11-13T10:17:38.995Z,12.64
2018-11-13T10:18:38.849Z,12.78
2018-11-13T10:19:38.772Z,12.63
2018-11-13T10:20:38.697Z,12.73
2018-11-13T10:21:38.622Z,12.64
2018-11-13T10:22:38.546Z,12.66
2018-11-13T10:23:38.469Z,12.73
2018-11-13T10:24:38.393Z,12.73
2018-11-13T10:25:38.318Z,12.86
2018-11-13T10:26:38.245Z,12.78
2018-11-13T10:27:38.224Z,12.82
2018-11-13T10:28:38.090Z,12.79
2018-11-13T10:29:38.016Z,12.86
2018-11-13T10:30:37.945Z,12.91
2018-11-13T10:31:37.863Z,12.85
2018-11-13T10:32:37.789Z,12.81
2018-11-13T10:33:37.715Z,12.71
2018-11-13T10:34:37.639Z,12.74
2018-11-13T10:35:37.565Z,12.78
2018-11-13T10:36:37.487Z,12.73
2018-11-13T10:37:37.411Z,12.74
2018-11-13T10:38:37.336Z,12.66
2018-11-13T10:39:37.261Z,12.77
2018-11-13T10:40:37.336Z,12.73
2018-11-13T10:41:37.226Z,12.85
2018-11-13T10:42:37.037Z,12.79
2018-11-13T10:43:36.958Z,12.74
2018-11-13T10:44:36.885Z,12.85
2018-11-13T10:45:36.806Z,12.74
2018-11-13T10:46:36.732Z,12.84
2018-11-13T10:47:36.658Z,12.81
2018-11-13T10:48:36.580Z,12.84
2018-11-13T10:49:36.505Z,12.97
2018-11-13T10:50:36.432Z,12.91
2018-11-13T10:51:36.354Z,12.96
2018-11-13T10:52:36.279Z,12.78
2018-11-13T10:53:36.204Z,12.70
2018-11-13T10:54:36.128Z,12.66
2018-11-13T10:55:36.051Z,12.70
2018-11-13T10:56:36.065Z,12.69
2018-11-13T10:57:35.909Z,12.70
2018-11-13T10:58:35.835Z,12.71
2018-11-13T10:59:35.749Z,12.89
2018-11-13T11:00:35.679Z,13.06
2018-11-13T11:01:35.598Z,13.17
2018-11-13T11:02:35.658Z,13.18
2018-11-13T11:03:35.447Z,13.09
2018-11-13T11:04:35.414Z,13.19
2018-11-13T11:05:35.296Z,13.09
2018-11-13T11:06:35.223Z,13.22
2018-11-13T11:07:35.298Z,13.17
2018-11-13T11:08:35.070Z,13.11
2018-11-13T11:09:34.996Z,13.15
2018-11-13T11:10:34.923Z,13.11
2018-11-13T11:11:34.965Z,13.14
2018-11-13T11:12:34.772Z,13.27
2018-11-13T11:13:34.836Z,13.18
2018-11-13T11:14:34.620Z,13.21
2018-11-13T11:15:34.547Z,13.03
2018-11-13T11:16:34.469Z,13.00
2018-11-13T11:17:34.395Z,13.11
2018-11-13T11:18:34.347Z,13.19
2018-11-13T11:19:34.372Z,13.56
2018-11-13T11:20:34.171Z,13.70
2018-11-13T11:21:34.095Z,13.65
2018-11-13T11:22:34.149Z,13.47
2018-11-13T11:23:34.071Z,13.22
2018-11-13T11:24:33.871Z,13.21
2018-11-13T11:25:33.797Z,13.21
2018-11-13T11:26:33.828Z,13.21
2018-11-13T11:27:33.746Z,13.32
2018-11-13T11:28:33.574Z,13.27
2018-11-13T11:29:33.506Z,13.43
2018-11-13T11:30:33.427Z,13.50
2018-11-13T11:31:33.346Z,13.43
2018-11-13T11:32:33.323Z,13.43
2018-11-13T11:33:33.199Z,13.25
2018-11-13T11:34:33.123Z,13.19
2018-11-13T11:35:33.049Z,13.27
2018-11-13T11:36:32.973Z,13.10
2018-11-13T11:37:32.899Z,13.17
2018-11-13T11:38:32.857Z,13.17
2018-11-13T11:39:32.753Z,13.11
2018-11-13T11:40:32.675Z,13.07
2018-11-13T11:41:32.601Z,13.03
2018-11-13T11:42:32.526Z,12.99
2018-11-13T11:43:32.451Z,12.97
2018-11-13T11:44:32.457Z,12.92
2018-11-13T11:45:32.301Z,12.91
2018-11-13T11:46:32.227Z,12.82
2018-11-13T11:47:32.148Z,14.01
2018-11-13T11:48:32.074Z,14.57
2018-11-13T11:49:32.000Z,15.71
2018-11-13T11:50:31.926Z,16.07
2018-11-13T11:51:31.851Z,15.46
2018-11-13T11:52:31.777Z,14.83
2018-11-13T11:53:31.703Z,14.34
2018-11-13T11:54:31.631Z,13.99
2018-11-13T11:55:31.554Z,13.84
2018-11-13T11:56:31.479Z,14.13
2018-11-13T11:57:31.406Z,14.20
2018-11-13T11:58:31.333Z,14.24
2018-11-13T11:59:31.257Z,14.72
2018-11-13T12:00:31.245Z,14.38
2018-11-13T12:01:31.111Z,14.14
2018-11-13T12:02:31.037Z,13.94
2018-11-13T12:03:30.963Z,14.23
2018-11-13T12:04:30.889Z,14.90
2018-11-13T12:05:30.817Z,15.39
2018-11-13T12:06:30.741Z,15.42
2018-11-13T12:07:30.667Z,15.09
2018-11-13T12:08:30.596Z,14.36
2018-11-13T12:09:30.621Z,13.84
2018-11-13T12:10:30.447Z,13.71
2018-11-13T12:11:30.375Z,13.98
2018-11-13T12:12:30.301Z,13.94
2018-11-13T12:13:30.227Z,13.95
2018-11-13T12:14:30.155Z,13.95
2018-11-13T12:15:30.079Z,13.74
2018-11-13T12:16:30.007Z,13.68
2018-11-13T12:17:29.932Z,13.62
2018-11-13T12:18:29.860Z,13.50
2018-11-13T12:19:29.829Z,13.27
2018-11-13T12:20:29.712Z,13.19
2018-11-13T12:21:29.639Z,13.19
2018-11-13T12:22:29.564Z,13.18
2018-11-13T12:23:29.490Z,13.07
2018-11-13T12:24:29.417Z,13.03
2018-11-13T12:25:29.342Z,13.14
2018-11-13T12:26:29.267Z,13.11
2018-11-13T12:27:29.193Z,13.07
2018-11-13T12:28:29.119Z,13.10
2018-11-13T12:29:29.093Z,13.06
2018-11-13T12:30:28.971Z,12.97
2018-11-13T12:31:28.894Z,12.97
2018-11-13T12:32:28.819Z,12.88
2018-11-13T12:33:28.747Z,12.97
2018-11-13T12:34:28.715Z,13.02
2018-11-13T12:35:28.597Z,13.15
2018-11-13T12:36:28.521Z,13.04
2018-11-13T12:37:28.446Z,12.91
2018-11-13T12:38:28.374Z,12.96
2018-11-13T12:39:28.345Z,12.82
2018-11-13T12:40:28.220Z,12.81
2018-11-13T12:41:28.144Z,12.84
2018-11-13T12:42:28.070Z,12.67
2018-11-13T12:43:27.994Z,12.70
2018-11-13T12:44:27.919Z,12.77
2018-11-13T12:45:27.843Z,12.77
2018-11-13T12:46:27.783Z,12.82
2018-11-13T12:47:27.697Z,12.92
2018-11-13T12:48:27.618Z,13.06
2018-11-13T12:49:27.592Z,13.06
2018-11-13T12:50:27.467Z,13.07
2018-11-13T12:51:27.391Z,12.97